sensor_id;sensor_type;location;lat;lon;timestamp;pressure;altitude;pressure_sealevel;temperature;humidity
22582;BME280;47125;48.542;9.052;2023-12-20T00:07:00;95944.66;;;8.18;67.18
22582;BME280;47125;48.542;9.052;2023-12-20T00:17:05;95931.44;;;8.30;67.07
22582;BME280;47125;48.542;9.052;2023-12-20T00:27:07;95915.19;;;8.20;67.23
22582;BME280;47125;48.542;9.052;2023-12-20T00:37:11;95901.72;;;8.33;67.18
22582;BME280;47125;48.542;9.052;2023-12-20T00:47:13;95894.19;;;8.30;67.41
22582;BME280;47125;48.542;9.052;2023-12-20T00:57:17;95897.66;;;8.12;68.85
22582;BME280;47125;48.542;9.052;2023-12-20T01:07:20;95908.25;;;8.01;71.65
22582;BME280;47125;48.542;9.052;2023-12-20T01:17:23;95932.31;;;8.06;74.25
22582;BME280;47125;48.542;9.052;2023-12-20T01:27:26;95919.09;;;7.99;78.22
22582;BME280;47125;48.542;9.052;2023-12-20T01:37:30;95929.59;;;7.94;81.05
22582;BME280;47125;48.542;9.052;2023-12-20T01:47:32;95932.03;;;7.96;82.24
22582;BME280;47125;48.542;9.052;2023-12-20T01:57:36;95931.38;;;7.82;83.10
22582;BME280;47125;48.542;9.052;2023-12-20T02:07:39;95916.09;;;7.78;84.44
22582;BME280;47125;48.542;9.052;2023-12-20T02:17:43;95905.22;;;7.61;85.27
22582;BME280;47125;48.542;9.052;2023-12-20T02:27:47;95908.31;;;7.58;86.72
22582;BME280;47125;48.542;9.052;2023-12-20T02:37:50;95905.00;;;7.81;85.43
22582;BME280;47125;48.542;9.052;2023-12-20T02:47:54;95898.81;;;7.87;84.99
22582;BME280;47125;48.542;9.052;2023-12-20T02:57:57;95891.78;;;7.74;85.28
22582;BME280;47125;48.542;9.052;2023-12-20T03:08:01;95909.28;;;7.82;85.24
22582;BME280;47125;48.542;9.052;2023-12-20T03:18:04;95909.34;;;7.93;85.04
22582;BME280;47125;48.542;9.052;2023-12-20T03:28:07;95921.09;;;7.67;85.66
22582;BME280;47125;48.542;9.052;2023-12-20T03:38:10;95926.88;;;7.83;85.33
22582;BME280;47125;48.542;9.052;2023-12-20T03:48:14;95946.19;;;7.53;85.39
22582;BME280;47125;48.542;9.052;2023-12-20T03:58:16;95951.97;;;7.68;84.53
22582;BME280;47125;48.542;9.052;2023-12-20T04:08:21;95957.13;;;7.82;83.41
22582;BME280;47125;48.542;9.052;2023-12-20T04:18:23;95969.06;;;7.54;83.67
22582;BME280;47125;48.542;9.052;2023-12-20T04:28:27;95975.13;;;7.37;83.13
22582;BME280;47125;48.542;9.052;2023-12-20T04:38:31;95968.41;;;7.34;83.61
22582;BME280;47125;48.542;9.052;2023-12-20T04:48:35;95972.13;;;7.08;83.79
22582;BME280;47125;48.542;9.052;2023-12-20T04:58:38;95983.22;;;7.24;82.95
22582;BME280;47125;48.542;9.052;2023-12-20T05:08:41;95997.59;;;7.41;83.21
22582;BME280;47125;48.542;9.052;2023-12-20T05:18:44;96008.66;;;7.38;82.48
22582;BME280;47125;48.542;9.052;2023-12-20T05:28:48;96017.31;;;7.27;82.81
22582;BME280;47125;48.542;9.052;2023-12-20T05:38:50;96034.47;;;6.99;84.47
22582;BME280;47125;48.542;9.052;2023-12-20T05:48:54;96044.56;;;7.15;83.69
22582;BME280;47125;48.542;9.052;2023-12-20T05:58:57;96051.38;;;7.05;84.20
22582;BME280;47125;48.542;9.052;2023-12-20T06:09:02;96054.16;;;7.16;84.82
22582;BME280;47125;48.542;9.052;2023-12-20T06:19:24;96072.91;;;7.21;82.73
22582;BME280;47125;48.542;9.052;2023-12-20T06:29:28;96058.47;;;7.17;82.80
22582;BME280;47125;48.542;9.052;2023-12-20T06:39:32;96071.16;;;7.40;81.98
22582;BME280;47125;48.542;9.052;2023-12-20T06:49:36;96081.22;;;7.32;82.44
22582;BME280;47125;48.542;9.052;2023-12-20T06:59:39;96082.00;;;7.39;82.68
22582;BME280;47125;48.542;9.052;2023-12-20T07:09:43;96107.75;;;7.38;83.50
22582;BME280;47125;48.542;9.052;2023-12-20T07:19:45;96117.31;;;7.46;82.97
22582;BME280;47125;48.542;9.052;2023-12-20T07:29:50;96126.06;;;7.53;82.79
22582;BME280;47125;48.542;9.052;2023-12-20T07:39:52;96149.81;;;7.72;82.44
22582;BME280;47125;48.542;9.052;2023-12-20T07:49:56;96162.03;;;7.49;83.19
22582;BME280;47125;48.542;9.052;2023-12-20T07:59:59;96164.72;;;7.42;83.63
22582;BME280;47125;48.542;9.052;2023-12-20T08:10:03;96165.34;;;7.44;83.81
22582;BME280;47125;48.542;9.052;2023-12-20T08:20:06;96169.28;;;7.66;83.22
22582;BME280;47125;48.542;9.052;2023-12-20T08:30:10;96172.31;;;7.76;82.55
22582;BME280;47125;48.542;9.052;2023-12-20T08:40:14;96183.25;;;7.62;83.66
22582;BME280;47125;48.542;9.052;2023-12-20T08:50:18;96184.25;;;7.61;83.75
22582;BME280;47125;48.542;9.052;2023-12-20T09:00:20;96209.34;;;7.71;84.24
22582;BME280;47125;48.542;9.052;2023-12-20T09:10:27;96227.41;;;7.12;83.03
22582;BME280;47125;48.542;9.052;2023-12-20T09:20:29;96218.72;;;7.36;78.97
22582;BME280;47125;48.542;9.052;2023-12-20T09:30:34;96220.63;;;7.22;76.42
22582;BME280;47125;48.542;9.052;2023-12-20T09:40:39;96217.97;;;7.22;73.26
22582;BME280;47125;48.542;9.052;2023-12-20T09:50:44;96218.19;;;7.65;70.80
22582;BME280;47125;48.542;9.052;2023-12-20T10:00:53;96230.31;;;7.48;69.53
22582;BME280;47125;48.542;9.052;2023-12-20T10:10:57;96225.03;;;7.80;69.03
22582;BME280;47125;48.542;9.052;2023-12-20T10:21:04;96223.88;;;8.00;68.52
22582;BME280;47125;48.542;9.052;2023-12-20T10:31:08;96216.59;;;7.89;67.91
22582;BME280;47125;48.542;9.052;2023-12-20T10:41:11;96192.22;;;7.61;65.84
22582;BME280;47125;48.542;9.052;2023-12-20T10:51:17;96178.88;;;8.23;64.61
22582;BME280;47125;48.542;9.052;2023-12-20T11:01:21;96192.34;;;8.35;64.11
22582;BME280;47125;48.542;9.052;2023-12-20T11:11:27;96179.69;;;8.73;63.58
22582;BME280;47125;48.542;9.052;2023-12-20T11:21:33;96179.66;;;8.06;61.63
22582;BME280;47125;48.542;9.052;2023-12-20T11:31:40;96165.69;;;7.86;61.30
22582;BME280;47125;48.542;9.052;2023-12-20T11:41:44;96176.16;;;7.49;61.24
22582;BME280;47125;48.542;9.052;2023-12-20T11:51:48;96182.50;;;7.80;59.04
22582;BME280;47125;48.542;9.052;2023-12-20T12:01:50;96178.09;;;7.67;59.64
22582;BME280;47125;48.542;9.052;2023-12-20T12:11:55;96182.47;;;7.48;60.83
22582;BME280;47125;48.542;9.052;2023-12-20T12:22:03;96165.41;;;7.31;61.79
22582;BME280;47125;48.542;9.052;2023-12-20T12:32:08;96161.47;;;7.09;61.74
22582;BME280;47125;48.542;9.052;2023-12-20T12:42:11;96141.25;;;7.39;62.88
22582;BME280;47125;48.542;9.052;2023-12-20T12:52:15;96146.19;;;7.36;62.47
22582;BME280;47125;48.542;9.052;2023-12-20T13:02:17;96139.59;;;7.45;61.25
22582;BME280;47125;48.542;9.052;2023-12-20T13:12:21;96132.81;;;7.17;61.51
22582;BME280;47125;48.542;9.052;2023-12-20T13:22:24;96105.94;;;7.39;60.65
22582;BME280;47125;48.542;9.052;2023-12-20T13:32:28;96120.84;;;7.64;59.54
22582;BME280;47125;48.542;9.052;2023-12-20T13:42:31;96120.25;;;7.87;58.68
22582;BME280;47125;48.542;9.052;2023-12-20T13:52:35;96124.84;;;7.49;60.22
22582;BME280;47125;48.542;9.052;2023-12-20T14:02:40;96129.69;;;7.58;60.55
22582;BME280;47125;48.542;9.052;2023-12-20T14:12:44;96139.00;;;7.43;60.56
22582;BME280;47125;48.542;9.052;2023-12-20T14:22:46;96131.31;;;7.28;61.99
22582;BME280;47125;48.542;9.052;2023-12-20T14:32:50;96114.09;;;7.06;65.11
22582;BME280;47125;48.542;9.052;2023-12-20T14:42:52;96102.16;;;7.15;65.19
22582;BME280;47125;48.542;9.052;2023-12-20T14:52:56;96102.28;;;6.95;66.65
22582;BME280;47125;48.542;9.052;2023-12-20T15:02:59;96101.66;;;7.00;68.00
22582;BME280;47125;48.542;9.052;2023-12-20T15:13:03;96108.47;;;6.76;69.60
22582;BME280;47125;48.542;9.052;2023-12-20T15:23:05;96110.13;;;6.71;70.04
22582;BME280;47125;48.542;9.052;2023-12-20T15:33:10;96123.22;;;6.65;70.46
22582;BME280;47125;48.542;9.052;2023-12-20T15:43:13;96121.25;;;6.41;71.79
22582;BME280;47125;48.542;9.052;2023-12-20T15:53:17;96136.59;;;6.33;72.04
22582;BME280;47125;48.542;9.052;2023-12-20T16:03:19;96111.28;;;6.30;72.57
22582;BME280;47125;48.542;9.052;2023-12-20T16:13:27;96122.09;;;6.29;73.30
22582;BME280;47125;48.542;9.052;2023-12-20T16:23:30;96121.06;;;6.43;71.84
22582;BME280;47125;48.542;9.052;2023-12-20T16:33:34;96115.13;;;6.41;72.42
22582;BME280;47125;48.542;9.052;2023-12-20T16:43:36;96125.56;;;6.42;72.53
22582;BME280;47125;48.542;9.052;2023-12-20T16:53:40;96111.06;;;6.38;72.02
22582;BME280;47125;48.542;9.052;2023-12-20T17:03:43;96116.69;;;6.61;72.00
22582;BME280;47125;48.542;9.052;2023-12-20T17:13:46;96129.22;;;6.41;72.27
22582;BME280;47125;48.542;9.052;2023-12-20T17:23:49;96130.44;;;6.39;72.37
22582;BME280;47125;48.542;9.052;2023-12-20T17:33:53;96136.75;;;6.51;72.13
22582;BME280;47125;48.542;9.052;2023-12-20T17:43:55;96152.09;;;6.29;73.08
22582;BME280;47125;48.542;9.052;2023-12-20T17:53:59;96140.41;;;6.43;72.91
22582;BME280;47125;48.542;9.052;2023-12-20T18:04:04;96128.22;;;6.29;73.13
22582;BME280;47125;48.542;9.052;2023-12-20T18:14:08;96143.94;;;6.31;73.26
22582;BME280;47125;48.542;9.052;2023-12-20T18:24:12;96122.91;;;6.36;72.77
22582;BME280;47125;48.542;9.052;2023-12-20T18:34:15;96121.28;;;6.35;73.10
22582;BME280;47125;48.542;9.052;2023-12-20T18:44:18;96122.69;;;6.44;72.18
22582;BME280;47125;48.542;9.052;2023-12-20T18:54:22;96124.53;;;6.37;72.57
22582;BME280;47125;48.542;9.052;2023-12-20T19:04:25;96114.13;;;6.42;71.85
22582;BME280;47125;48.542;9.052;2023-12-20T19:14:29;96090.06;;;6.37;71.18
22582;BME280;47125;48.542;9.052;2023-12-20T19:24:33;96094.75;;;6.35;70.88
22582;BME280;47125;48.542;9.052;2023-12-20T19:34:36;96074.34;;;6.35;70.93
22582;BME280;47125;48.542;9.052;2023-12-20T19:44:39;96064.53;;;6.42;70.46
22582;BME280;47125;48.542;9.052;2023-12-20T19:54:43;96041.28;;;6.38;70.64
22582;BME280;47125;48.542;9.052;2023-12-20T20:04:45;96031.44;;;6.51;71.27
22582;BME280;47125;48.542;9.052;2023-12-20T20:14:49;96022.50;;;6.46;71.59
22582;BME280;47125;48.542;9.052;2023-12-20T20:24:52;96017.63;;;6.43;70.37
22582;BME280;47125;48.542;9.052;2023-12-20T20:34:56;96005.22;;;6.30;70.40
22582;BME280;47125;48.542;9.052;2023-12-20T20:44:58;96015.81;;;6.30;70.73
22582;BME280;47125;48.542;9.052;2023-12-20T20:55:02;96027.69;;;6.21;71.13
22582;BME280;47125;48.542;9.052;2023-12-20T21:05:05;96008.47;;;6.32;70.45
22582;BME280;47125;48.542;9.052;2023-12-20T21:15:10;96000.50;;;6.32;70.71
22582;BME280;47125;48.542;9.052;2023-12-20T21:25:15;95982.06;;;6.50;70.62
22582;BME280;47125;48.542;9.052;2023-12-20T21:35:19;95977.00;;;6.42;71.69
22582;BME280;47125;48.542;9.052;2023-12-20T21:45:21;95968.69;;;6.32;72.06
22582;BME280;47125;48.542;9.052;2023-12-20T21:55:25;95942.22;;;6.19;72.86
22582;BME280;47125;48.542;9.052;2023-12-20T22:05:28;95919.75;;;6.28;72.79
22582;BME280;47125;48.542;9.052;2023-12-20T22:15:32;95913.38;;;6.36;71.87
22582;BME280;47125;48.542;9.052;2023-12-20T22:25:35;95892.13;;;6.42;71.29
22582;BME280;47125;48.542;9.052;2023-12-20T22:35:39;95899.13;;;6.61;71.05
22582;BME280;47125;48.542;9.052;2023-12-20T22:45:44;95884.59;;;6.39;71.71
22582;BME280;47125;48.542;9.052;2023-12-20T22:55:48;95879.00;;;6.54;71.63
22582;BME280;47125;48.542;9.052;2023-12-20T23:05:50;95864.88;;;6.29;72.16
22582;BME280;47125;48.542;9.052;2023-12-20T23:15:54;95854.19;;;6.42;71.98
22582;BME280;47125;48.542;9.052;2023-12-20T23:25:58;95824.97;;;6.48;71.58
22582;BME280;47125;48.542;9.052;2023-12-20T23:36:02;95812.50;;;6.49;71.68
22582;BME280;47125;48.542;9.052;2023-12-20T23:46:04;95769.38;;;6.35;71.96
22582;BME280;47125;48.542;9.052;2023-12-20T23:56:08;95742.91;;;6.29;72.74
